sensor_id;sensor_type;location;lat;lon;timestamp;pressure;altitude;pressure_sealevel;temperature;humidity
31717;BME280;18301;51.076;17.046;2023-03-13T00:02:55;99487.81;;;6.75;73.96
31717;BME280;18301;51.076;17.046;2023-03-13T00:07:57;99489.34;;;6.66;74.41
31717;BME280;18301;51.076;17.046;2023-03-13T00:12:58;99490.75;;;6.59;75.85
31717;BME280;18301;51.076;17.046;2023-03-13T00:18:00;99490.75;;;6.59;75.17
31717;BME280;18301;51.076;17.046;2023-03-13T00:23:01;99493.44;;;6.59;75.29
31717;BME280;18301;51.076;17.046;2023-03-13T00:28:03;99494.69;;;6.66;75.28
31717;BME280;18301;51.076;17.046;2023-03-13T00:33:04;99495.97;;;6.74;75.27
31717;BME280;18301;51.076;17.046;2023-03-13T00:38:06;99487.63;;;6.65;75.67
31717;BME280;18301;51.076;17.046;2023-03-13T00:43:07;99488.31;;;6.56;76.08
31717;BME280;18301;51.076;17.046;2023-03-13T00:48:09;99494.69;;;6.66;76.05
31717;BME280;18301;51.076;17.046;2023-03-13T00:53:10;99495.09;;;6.73;76.26
31717;BME280;18301;51.076;17.046;2023-03-13T00:58:12;99491.88;;;6.81;75.75
31717;BME280;18301;51.076;17.046;2023-03-13T01:03:13;99490.38;;;6.77;76.28
31717;BME280;18301;51.076;17.046;2023-03-13T01:08:15;99490.47;;;6.88;75.47
31717;BME280;18301;51.076;17.046;2023-03-13T01:13:16;99488.31;;;6.93;75.46
31717;BME280;18301;51.076;17.046;2023-03-13T01:18:18;99484.88;;;6.91;75.65
31717;BME280;18301;51.076;17.046;2023-03-13T01:23:19;99490.00;;;6.94;75.94
31717;BME280;18301;51.076;17.046;2023-03-13T01:28:22;99487.19;;;6.96;75.47
31717;BME280;18301;51.076;17.046;2023-03-13T01:33:23;99487.28;;;7.07;75.05
31717;BME280;18301;51.076;17.046;2023-03-13T01:38:25;99486.66;;;7.03;75.64
31717;BME280;18301;51.076;17.046;2023-03-13T01:43:29;99482.75;;;7.07;76.71
31717;BME280;18301;51.076;17.046;2023-03-13T01:49:17;99482.38;;;7.25;75.74
31717;BME280;18301;51.076;17.046;2023-03-13T01:54:32;99489.50;;;7.37;76.26
31717;BME280;18301;51.076;17.046;2023-03-13T01:59:43;99500.94;;;7.28;77.22
31717;BME280;18301;51.076;17.046;2023-03-13T02:04:50;99495.41;;;7.18;77.46
31717;BME280;18301;51.076;17.046;2023-03-13T02:09:54;99512.41;;;7.30;78.25
31717;BME280;18301;51.076;17.046;2023-03-13T02:14:58;99510.66;;;7.05;82.80
31717;BME280;18301;51.076;17.046;2023-03-13T02:20:00;99526.31;;;7.11;81.04
31717;BME280;18301;51.076;17.046;2023-03-13T02:25:12;99523.97;;;7.06;82.10
31717;BME280;18301;51.076;17.046;2023-03-13T02:30:15;99517.94;;;7.15;82.58
31717;BME280;18301;51.076;17.046;2023-03-13T02:35:19;99520.72;;;7.14;83.49
31717;BME280;18301;51.076;17.046;2023-03-13T02:40:25;99514.28;;;7.17;83.47
31717;BME280;18301;51.076;17.046;2023-03-13T02:45:28;99508.22;;;7.26;83.74
31717;BME280;18301;51.076;17.046;2023-03-13T02:50:29;99510.69;;;7.29;83.67
31717;BME280;18301;51.076;17.046;2023-03-13T02:55:38;99509.22;;;7.25;83.76
31717;BME280;18301;51.076;17.046;2023-03-13T03:00:41;99502.59;;;7.18;84.10
31717;BME280;18301;51.076;17.046;2023-03-13T03:05:42;99502.81;;;7.14;84.22
31717;BME280;18301;51.076;17.046;2023-03-13T03:10:43;99489.88;;;7.08;84.40
31717;BME280;18301;51.076;17.046;2023-03-13T03:15:45;99487.69;;;7.13;84.43
31717;BME280;18301;51.076;17.046;2023-03-13T03:20:46;99494.94;;;7.24;84.36
31717;BME280;18301;51.076;17.046;2023-03-13T03:25:48;99475.19;;;7.25;84.08
31717;BME280;18301;51.076;17.046;2023-03-13T03:30:49;99479.69;;;7.25;83.99
31717;BME280;18301;51.076;17.046;2023-03-13T03:36:01;99476.78;;;7.28;83.76
31717;BME280;18301;51.076;17.046;2023-03-13T03:41:03;99480.94;;;7.32;83.72
31717;BME280;18301;51.076;17.046;2023-03-13T03:46:05;99481.56;;;7.35;83.47
31717;BME280;18301;51.076;17.046;2023-03-13T03:51:07;99478.16;;;7.33;83.68
31717;BME280;18301;51.076;17.046;2023-03-13T03:56:09;99473.41;;;7.37;83.85
31717;BME280;18301;51.076;17.046;2023-03-13T04:01:10;99471.25;;;7.42;83.92
31717;BME280;18301;51.076;17.046;2023-03-13T04:06:12;99474.38;;;7.36;84.04
31717;BME280;18301;51.076;17.046;2023-03-13T04:11:13;99463.75;;;7.34;84.09
31717;BME280;18301;51.076;17.046;2023-03-13T04:16:15;99462.44;;;7.40;83.95
31717;BME280;18301;51.076;17.046;2023-03-13T04:21:16;99457.44;;;7.11;84.65
31717;BME280;18301;51.076;17.046;2023-03-13T04:26:18;99437.63;;;7.01;85.21
31717;BME280;18301;51.076;17.046;2023-03-13T04:31:19;99423.41;;;6.88;86.54
31717;BME280;18301;51.076;17.046;2023-03-13T04:36:21;99418.56;;;6.93;86.06
31717;BME280;18301;51.076;17.046;2023-03-13T04:41:22;99409.47;;;6.83;87.93
31717;BME280;18301;51.076;17.046;2023-03-13T04:46:24;99405.66;;;6.74;89.25
31717;BME280;18301;51.076;17.046;2023-03-13T04:51:25;99403.63;;;6.78;89.10
31717;BME280;18301;51.076;17.046;2023-03-13T04:56:28;99399.84;;;6.80;87.73
31717;BME280;18301;51.076;17.046;2023-03-13T05:01:43;99403.50;;;6.79;89.32
31717;BME280;18301;51.076;17.046;2023-03-13T05:06:45;99409.72;;;6.80;88.61
31717;BME280;18301;51.076;17.046;2023-03-13T05:11:46;99403.31;;;6.69;90.95
31717;BME280;18301;51.076;17.046;2023-03-13T05:16:48;99397.28;;;6.79;90.76
31717;BME280;18301;51.076;17.046;2023-03-13T05:21:49;99384.91;;;6.89;90.47
31717;BME280;18301;51.076;17.046;2023-03-13T05:26:51;99387.63;;;7.00;88.93
31717;BME280;18301;51.076;17.046;2023-03-13T05:31:52;99383.03;;;7.02;89.58
31717;BME280;18301;51.076;17.046;2023-03-13T05:36:54;99378.66;;;7.12;88.41
31717;BME280;18301;51.076;17.046;2023-03-13T05:41:55;99372.44;;;7.12;88.76
31717;BME280;18301;51.076;17.046;2023-03-13T05:46:57;99381.69;;;7.08;90.63
31717;BME280;18301;51.076;17.046;2023-03-13T05:51:58;99366.53;;;7.31;87.88
31717;BME280;18301;51.076;17.046;2023-03-13T05:57:00;99366.91;;;7.37;87.67
31717;BME280;18301;51.076;17.046;2023-03-13T06:02:01;99363.09;;;7.29;88.64
31717;BME280;18301;51.076;17.046;2023-03-13T06:07:03;99360.44;;;7.40;88.16
31717;BME280;18301;51.076;17.046;2023-03-13T06:12:04;99360.22;;;7.43;88.13
31717;BME280;18301;51.076;17.046;2023-03-13T06:17:06;99354.59;;;7.46;88.21
31717;BME280;18301;51.076;17.046;2023-03-13T06:22:07;99340.47;;;7.55;88.36
31717;BME280;18301;51.076;17.046;2023-03-13T06:27:09;99333.53;;;7.64;87.88
31717;BME280;18301;51.076;17.046;2023-03-13T06:32:11;99340.97;;;7.72;87.98
31717;BME280;18301;51.076;17.046;2023-03-13T06:37:13;99329.38;;;7.82;87.72
31717;BME280;18301;51.076;17.046;2023-03-13T06:42:14;99327.06;;;7.89;87.67
31717;BME280;18301;51.076;17.046;2023-03-13T06:47:15;99325.47;;;7.98;87.92
31717;BME280;18301;51.076;17.046;2023-03-13T06:52:17;99330.22;;;8.05;87.88
31717;BME280;18301;51.076;17.046;2023-03-13T06:57:20;99330.91;;;8.19;87.20
31717;BME280;18301;51.076;17.046;2023-03-13T07:02:21;99320.78;;;8.45;86.21
31717;BME280;18301;51.076;17.046;2023-03-13T07:07:23;99321.03;;;8.53;86.15
31717;BME280;18301;51.076;17.046;2023-03-13T07:12:34;99308.38;;;8.65;85.66
31717;BME280;18301;51.076;17.046;2023-03-13T07:17:35;99290.25;;;8.78;85.38
31717;BME280;18301;51.076;17.046;2023-03-13T07:22:37;99281.25;;;9.10;84.15
31717;BME280;18301;51.076;17.046;2023-03-13T07:27:38;99279.47;;;9.20;83.62
31717;BME280;18301;51.076;17.046;2023-03-13T07:32:40;99277.84;;;9.29;83.89
31717;BME280;18301;51.076;17.046;2023-03-13T07:37:41;99262.28;;;9.32;83.52
31717;BME280;18301;51.076;17.046;2023-03-13T07:42:43;99265.25;;;9.60;83.49
31717;BME280;18301;51.076;17.046;2023-03-13T07:47:44;99245.47;;;9.80;81.58
31717;BME280;18301;51.076;17.046;2023-03-13T07:52:46;99259.72;;;9.92;80.31
31717;BME280;18301;51.076;17.046;2023-03-13T07:57:47;99257.81;;;9.73;81.37
31717;BME280;18301;51.076;17.046;2023-03-13T08:02:49;99262.78;;;9.78;80.87
31717;BME280;18301;51.076;17.046;2023-03-13T08:07:50;99262.81;;;9.97;80.98
31717;BME280;18301;51.076;17.046;2023-03-13T08:12:51;99241.16;;;10.08;81.20
31717;BME280;18301;51.076;17.046;2023-03-13T08:17:54;99235.78;;;10.18;80.54
31717;BME280;18301;51.076;17.046;2023-03-13T08:22:56;99222.75;;;10.23;80.51
31717;BME280;18301;51.076;17.046;2023-03-13T08:27:57;99210.44;;;10.30;80.51
31717;BME280;18301;51.076;17.046;2023-03-13T08:33:01;99220.09;;;10.52;79.20
31717;BME280;18301;51.076;17.046;2023-03-13T08:38:02;99218.94;;;10.74;77.97
31717;BME280;18301;51.076;17.046;2023-03-13T08:43:04;99209.88;;;10.75;77.10
31717;BME280;18301;51.076;17.046;2023-03-13T08:48:05;99209.59;;;10.78;77.79
31717;BME280;18301;51.076;17.046;2023-03-13T08:53:07;99194.25;;;10.69;77.79
31717;BME280;18301;51.076;17.046;2023-03-13T08:58:08;99180.28;;;11.03;76.74
31717;BME280;18301;51.076;17.046;2023-03-13T09:03:10;99179.41;;;11.12;76.76
31717;BME280;18301;51.076;17.046;2023-03-13T09:08:12;99179.28;;;11.04;74.94
31717;BME280;18301;51.076;17.046;2023-03-13T09:13:14;99170.31;;;11.13;75.75
31717;BME280;18301;51.076;17.046;2023-03-13T09:18:15;99164.78;;;11.15;75.22
31717;BME280;18301;51.076;17.046;2023-03-13T09:23:17;99151.28;;;11.15;74.77
31717;BME280;18301;51.076;17.046;2023-03-13T09:28:19;99144.97;;;11.24;74.91
31717;BME280;18301;51.076;17.046;2023-03-13T09:33:21;99131.56;;;11.32;74.52
31717;BME280;18301;51.076;17.046;2023-03-13T09:38:24;99127.84;;;11.43;74.78
31717;BME280;18301;51.076;17.046;2023-03-13T09:48:50;99102.22;;;11.47;74.79
31717;BME280;18301;51.076;17.046;2023-03-13T09:54:01;99084.50;;;11.62;73.54
31717;BME280;18301;51.076;17.046;2023-03-13T09:59:26;99068.47;;;11.51;74.12
31717;BME280;18301;51.076;17.046;2023-03-13T10:04:40;99059.22;;;11.53;73.21
31717;BME280;18301;51.076;17.046;2023-03-13T10:09:43;99055.19;;;11.67;72.90
31717;BME280;18301;51.076;17.046;2023-03-13T10:20:25;99045.78;;;11.44;75.90
31717;BME280;18301;51.076;17.046;2023-03-13T10:25:35;99030.69;;;11.23;77.39
31717;BME280;18301;51.076;17.046;2023-03-13T10:30:43;99019.75;;;10.97;79.93
31717;BME280;18301;51.076;17.046;2023-03-13T10:35:59;99019.44;;;10.73;83.17
31717;BME280;18301;51.076;17.046;2023-03-13T10:46:30;98990.03;;;10.79;83.77
31717;BME280;18301;51.076;17.046;2023-03-13T10:51:38;99001.78;;;10.88;81.74
31717;BME280;18301;51.076;17.046;2023-03-13T10:56:39;99006.16;;;10.89;82.00
31717;BME280;18301;51.076;17.046;2023-03-13T11:01:41;99015.31;;;10.78;83.73
31717;BME280;18301;51.076;17.046;2023-03-13T11:06:50;99023.00;;;10.73;87.48
31717;BME280;18301;51.076;17.046;2023-03-13T11:11:55;99025.91;;;10.90;84.81
31717;BME280;18301;51.076;17.046;2023-03-13T11:18:00;99027.91;;;10.88;86.53
31717;BME280;18301;51.076;17.046;2023-03-13T11:23:08;99010.41;;;10.92;85.10
31717;BME280;18301;51.076;17.046;2023-03-13T11:28:21;99007.81;;;11.00;85.15
31717;BME280;18301;51.076;17.046;2023-03-13T11:33:37;98993.97;;;11.13;85.41
31717;BME280;18301;51.076;17.046;2023-03-13T11:38:44;98962.81;;;11.18;84.33
31717;BME280;18301;51.076;17.046;2023-03-13T11:44:06;98976.78;;;11.32;83.93
31717;BME280;18301;51.076;17.046;2023-03-13T11:49:25;98962.91;;;11.44;82.42
31717;BME280;18301;51.076;17.046;2023-03-13T12:00:18;98958.50;;;11.43;83.07
31717;BME280;18301;51.076;17.046;2023-03-13T12:05:24;98952.63;;;11.48;82.97
31717;BME280;18301;51.076;17.046;2023-03-13T12:10:36;98954.81;;;11.44;83.45
31717;BME280;18301;51.076;17.046;2023-03-13T12:15:46;98935.81;;;11.54;83.04
31717;BME280;18301;51.076;17.046;2023-03-13T12:26:18;98936.28;;;11.67;81.86
31717;BME280;18301;51.076;17.046;2023-03-13T12:31:48;98933.94;;;11.72;81.85
31717;BME280;18301;51.076;17.046;2023-03-13T12:37:16;98931.31;;;11.81;81.82
31717;BME280;18301;51.076;17.046;2023-03-13T12:48:33;98907.19;;;12.05;80.01
31717;BME280;18301;51.076;17.046;2023-03-13T12:53:47;98905.06;;;12.17;80.46
31717;BME280;18301;51.076;17.046;2023-03-13T12:59:26;98898.50;;;12.19;80.66
31717;BME280;18301;51.076;17.046;2023-03-13T13:04:32;98914.72;;;12.19;80.01
31717;BME280;18301;51.076;17.046;2023-03-13T13:20:33;98897.84;;;12.26;79.97
31717;BME280;18301;51.076;17.046;2023-03-13T13:25:35;98895.22;;;12.42;79.60
31717;BME280;18301;51.076;17.046;2023-03-13T13:30:37;98901.03;;;12.55;78.90
31717;BME280;18301;51.076;17.046;2023-03-13T13:35:38;98902.25;;;12.61;78.63
31717;BME280;18301;51.076;17.046;2023-03-13T13:41:41;98891.75;;;12.58;79.45
31717;BME280;18301;51.076;17.046;2023-03-13T13:46:29;98873.72;;;12.40;78.45
31717;BME280;18301;51.076;17.046;2023-03-13T13:51:33;98870.88;;;12.42;79.05
31717;BME280;18301;51.076;17.046;2023-03-13T13:56:38;98872.97;;;12.56;78.10
31717;BME280;18301;51.076;17.046;2023-03-13T14:01:41;98875.38;;;12.67;77.86
31717;BME280;18301;51.076;17.046;2023-03-13T14:06:47;98870.34;;;12.81;77.46
31717;BME280;18301;51.076;17.046;2023-03-13T14:11:51;98856.63;;;12.82;76.80
31717;BME280;18301;51.076;17.046;2023-03-13T14:16:56;98860.84;;;12.77;75.98
31717;BME280;18301;51.076;17.046;2023-03-13T14:22:06;98869.69;;;12.95;76.45
31717;BME280;18301;51.076;17.046;2023-03-13T14:27:16;98859.22;;;13.00;75.89
31717;BME280;18301;51.076;17.046;2023-03-13T14:32:18;98864.66;;;13.17;74.97
31717;BME280;18301;51.076;17.046;2023-03-13T14:37:41;98848.41;;;13.17;74.83
31717;BME280;18301;51.076;17.046;2023-03-13T14:43:05;98865.00;;;13.05;75.20
31717;BME280;18301;51.076;17.046;2023-03-13T14:48:28;98848.75;;;13.13;73.87
31717;BME280;18301;51.076;17.046;2023-03-13T14:53:32;98868.03;;;13.02;75.21
31717;BME280;18301;51.076;17.046;2023-03-13T14:58:35;98864.97;;;12.97;75.27
31717;BME280;18301;51.076;17.046;2023-03-13T15:03:42;98858.19;;;12.93;75.41
31717;BME280;18301;51.076;17.046;2023-03-13T15:08:47;98863.34;;;13.29;74.35
31717;BME280;18301;51.076;17.046;2023-03-13T15:13:49;98856.94;;;13.46;73.89
31717;BME280;18301;51.076;17.046;2023-03-13T15:18:52;98856.22;;;13.36;73.76
31717;BME280;18301;51.076;17.046;2023-03-13T15:24:00;98856.53;;;13.17;74.28
31717;BME280;18301;51.076;17.046;2023-03-13T15:29:02;98851.00;;;13.34;73.56
31717;BME280;18301;51.076;17.046;2023-03-13T15:34:12;98843.69;;;13.19;73.83
31717;BME280;18301;51.076;17.046;2023-03-13T15:39:16;98841.78;;;13.11;74.01
31717;BME280;18301;51.076;17.046;2023-03-13T15:44:19;98834.72;;;13.18;74.30
31717;BME280;18301;51.076;17.046;2023-03-13T15:49:21;98825.22;;;13.14;74.55
31717;BME280;18301;51.076;17.046;2023-03-13T15:54:22;98827.06;;;12.97;75.53
31717;BME280;18301;51.076;17.046;2023-03-13T15:59:24;98804.41;;;13.06;75.55
31717;BME280;18301;51.076;17.046;2023-03-13T16:04:26;98811.00;;;13.12;75.93
31717;BME280;18301;51.076;17.046;2023-03-13T16:09:27;98781.00;;;12.89;76.44
31717;BME280;18301;51.076;17.046;2023-03-13T16:14:29;98777.66;;;12.87;76.88
31717;BME280;18301;51.076;17.046;2023-03-13T16:19:30;98777.78;;;12.77;77.48
31717;BME280;18301;51.076;17.046;2023-03-13T16:24:32;98779.31;;;12.80;77.38
31717;BME280;18301;51.076;17.046;2023-03-13T16:29:33;98773.56;;;12.75;77.94
31717;BME280;18301;51.076;17.046;2023-03-13T16:34:35;98765.59;;;12.73;77.23
31717;BME280;18301;51.076;17.046;2023-03-13T16:39:36;98770.16;;;12.56;78.78
31717;BME280;18301;51.076;17.046;2023-03-13T16:44:38;98773.34;;;12.52;78.18
31717;BME280;18301;51.076;17.046;2023-03-13T16:49:40;98753.53;;;12.43;78.25
31717;BME280;18301;51.076;17.046;2023-03-13T16:54:42;98729.31;;;12.25;80.29
31717;BME280;18301;51.076;17.046;2023-03-13T16:59:44;98726.44;;;12.18;80.13
31717;BME280;18301;51.076;17.046;2023-03-13T17:04:48;98742.41;;;12.04;81.00
31717;BME280;18301;51.076;17.046;2023-03-13T17:09:50;98739.91;;;12.02;81.50
31717;BME280;18301;51.076;17.046;2023-03-13T17:14:51;98745.94;;;11.96;81.56
31717;BME280;18301;51.076;17.046;2023-03-13T17:19:53;98727.41;;;12.01;80.80
31717;BME280;18301;51.076;17.046;2023-03-13T17:24:56;98727.59;;;12.08;80.54
31717;BME280;18301;51.076;17.046;2023-03-13T17:29:58;98703.59;;;12.13;80.04
31717;BME280;18301;51.076;17.046;2023-03-13T17:34:59;98722.56;;;12.21;79.64
31717;BME280;18301;51.076;17.046;2023-03-13T17:40:01;98733.59;;;12.36;78.44
31717;BME280;18301;51.076;17.046;2023-03-13T17:45:04;98731.34;;;12.23;78.93
31717;BME280;18301;51.076;17.046;2023-03-13T17:50:18;98709.22;;;12.19;78.82
31717;BME280;18301;51.076;17.046;2023-03-13T17:55:23;98691.94;;;12.12;79.21
31717;BME280;18301;51.076;17.046;2023-03-13T18:00:27;98715.47;;;12.20;79.03
31717;BME280;18301;51.076;17.046;2023-03-13T18:05:31;98713.97;;;12.26;78.86
31717;BME280;18301;51.076;17.046;2023-03-13T18:10:32;98715.31;;;12.30;78.48
31717;BME280;18301;51.076;17.046;2023-03-13T18:15:34;98713.97;;;12.26;78.44
31717;BME280;18301;51.076;17.046;2023-03-13T18:20:35;98708.56;;;12.26;78.25
31717;BME280;18301;51.076;17.046;2023-03-13T18:25:36;98703.78;;;12.11;78.74
31717;BME280;18301;51.076;17.046;2023-03-13T18:30:38;98719.63;;;12.06;78.72
31717;BME280;18301;51.076;17.046;2023-03-13T18:35:39;98725.31;;;11.87;79.73
31717;BME280;18301;51.076;17.046;2023-03-13T18:40:41;98722.06;;;11.83;79.76
31717;BME280;18301;51.076;17.046;2023-03-13T18:45:43;98701.69;;;11.89;79.85
31717;BME280;18301;51.076;17.046;2023-03-13T18:50:48;98695.63;;;11.95;79.49
31717;BME280;18301;51.076;17.046;2023-03-13T18:55:50;98712.50;;;11.97;79.43
31717;BME280;18301;51.076;17.046;2023-03-13T19:00:51;98700.66;;;11.90;79.81
31717;BME280;18301;51.076;17.046;2023-03-13T19:05:53;98686.81;;;11.93;79.49
31717;BME280;18301;51.076;17.046;2023-03-13T19:10:54;98692.06;;;12.03;78.83
31717;BME280;18301;51.076;17.046;2023-03-13T19:15:56;98688.19;;;12.05;78.73
31717;BME280;18301;51.076;17.046;2023-03-13T19:20:57;98684.81;;;11.95;78.88
31717;BME280;18301;51.076;17.046;2023-03-13T19:25:59;98672.94;;;11.88;79.13
31717;BME280;18301;51.076;17.046;2023-03-13T19:31:00;98667.53;;;11.88;78.97
31717;BME280;18301;51.076;17.046;2023-03-13T19:36:02;98657.00;;;11.77;79.84
31717;BME280;18301;51.076;17.046;2023-03-13T19:41:03;98661.53;;;11.68;79.75
31717;BME280;18301;51.076;17.046;2023-03-13T19:46:24;98656.13;;;11.68;79.57
31717;BME280;18301;51.076;17.046;2023-03-13T19:51:27;98649.69;;;11.61;79.12
31717;BME280;18301;51.076;17.046;2023-03-13T19:56:30;98657.94;;;11.59;79.13
31717;BME280;18301;51.076;17.046;2023-03-13T20:01:32;98654.47;;;11.41;78.19
31717;BME280;18301;51.076;17.046;2023-03-13T20:06:35;98650.66;;;11.51;77.85
31717;BME280;18301;51.076;17.046;2023-03-13T20:11:37;98644.06;;;11.46;76.18
31717;BME280;18301;51.076;17.046;2023-03-13T20:16:39;98642.72;;;11.50;75.57
31717;BME280;18301;51.076;17.046;2023-03-13T20:21:41;98647.72;;;11.37;73.66
31717;BME280;18301;51.076;17.046;2023-03-13T20:26:43;98644.53;;;11.41;72.53
31717;BME280;18301;51.076;17.046;2023-03-13T20:31:44;98655.13;;;11.35;70.83
31717;BME280;18301;51.076;17.046;2023-03-13T20:36:46;98636.41;;;11.33;70.75
31717;BME280;18301;51.076;17.046;2023-03-13T20:41:47;98621.38;;;11.39;70.26
31717;BME280;18301;51.076;17.046;2023-03-13T20:46:48;98621.69;;;11.27;69.25
31717;BME280;18301;51.076;17.046;2023-03-13T20:51:50;98618.63;;;11.22;68.22
31717;BME280;18301;51.076;17.046;2023-03-13T20:56:52;98605.38;;;11.11;67.26
31717;BME280;18301;51.076;17.046;2023-03-13T21:01:53;98598.88;;;11.22;65.98
31717;BME280;18301;51.076;17.046;2023-03-13T21:06:55;98587.47;;;11.36;64.81
31717;BME280;18301;51.076;17.046;2023-03-13T21:12:04;98573.41;;;11.24;64.68
31717;BME280;18301;51.076;17.046;2023-03-13T21:17:06;98555.31;;;11.17;64.95
31717;BME280;18301;51.076;17.046;2023-03-13T21:22:11;98543.09;;;11.04;65.45
31717;BME280;18301;51.076;17.046;2023-03-13T21:27:12;98543.28;;;11.11;65.28
31717;BME280;18301;51.076;17.046;2023-03-13T21:32:17;98550.97;;;11.24;64.85
31717;BME280;18301;51.076;17.046;2023-03-13T21:37:20;98533.69;;;11.09;65.02
31717;BME280;18301;51.076;17.046;2023-03-13T21:42:21;98525.38;;;11.02;64.98
31717;BME280;18301;51.076;17.046;2023-03-13T21:47:23;98528.63;;;11.14;64.45
31717;BME280;18301;51.076;17.046;2023-03-13T21:52:24;98519.31;;;11.00;63.79
31717;BME280;18301;51.076;17.046;2023-03-13T21:57:26;98515.50;;;11.19;64.00
31717;BME280;18301;51.076;17.046;2023-03-13T22:02:27;98517.13;;;11.03;63.92
31717;BME280;18301;51.076;17.046;2023-03-13T22:07:29;98499.34;;;10.93;64.75
31717;BME280;18301;51.076;17.046;2023-03-13T22:12:31;98497.03;;;10.98;64.35
31717;BME280;18301;51.076;17.046;2023-03-13T22:17:32;98496.00;;;10.99;63.98
31717;BME280;18301;51.076;17.046;2023-03-13T22:22:34;98500.94;;;11.03;63.92
31717;BME280;18301;51.076;17.046;2023-03-13T22:27:36;98485.03;;;10.92;64.72
31717;BME280;18301;51.076;17.046;2023-03-13T22:32:38;98474.09;;;10.94;64.87
31717;BME280;18301;51.076;17.046;2023-03-13T22:37:40;98464.28;;;10.93;65.42
31717;BME280;18301;51.076;17.046;2023-03-13T22:42:41;98450.13;;;10.99;64.93
31717;BME280;18301;51.076;17.046;2023-03-13T22:47:43;98446.31;;;11.10;65.23
31717;BME280;18301;51.076;17.046;2023-03-13T22:52:44;98437.38;;;11.17;65.40
31717;BME280;18301;51.076;17.046;2023-03-13T22:57:46;98428.28;;;11.18;65.39
31717;BME280;18301;51.076;17.046;2023-03-13T23:02:47;98440.75;;;11.19;65.55
31717;BME280;18301;51.076;17.046;2023-03-13T23:07:49;98497.44;;;11.19;63.89
31717;BME280;18301;51.076;17.046;2023-03-13T23:12:51;98493.63;;;11.38;63.85
31717;BME280;18301;51.076;17.046;2023-03-13T23:17:52;98490.38;;;11.26;64.22
31717;BME280;18301;51.076;17.046;2023-03-13T23:22:54;98499.50;;;11.25;63.37
31717;BME280;18301;51.076;17.046;2023-03-13T23:27:55;98464.09;;;11.45;63.84
31717;BME280;18301;51.076;17.046;2023-03-13T23:32:57;98456.69;;;11.47;63.48
31717;BME280;18301;51.076;17.046;2023-03-13T23:37:59;98447.56;;;11.40;64.41
31717;BME280;18301;51.076;17.046;2023-03-13T23:43:01;98450.25;;;11.40;64.72
31717;BME280;18301;51.076;17.046;2023-03-13T23:48:02;98453.25;;;11.28;64.82
31717;BME280;18301;51.076;17.046;2023-03-13T23:53:04;98444.69;;;11.33;64.25
31717;BME280;18301;51.076;17.046;2023-03-13T23:58:06;98428.63;;;11.32;64.36
